sensor_id;sensor_type;location;lat;lon;timestamp;pressure;altitude;pressure_sealevel;temperature;humidity
49063;BME280;34876;51.464;-0.150;2023-08-12T00:04:16;101515.00;;;24.12;49.48
49063;BME280;34876;51.464;-0.150;2023-08-12T00:06:50;101507.53;;;24.12;49.47
49063;BME280;34876;51.464;-0.150;2023-08-12T00:09:48;101510.88;;;24.07;49.58
49063;BME280;34876;51.464;-0.150;2023-08-12T00:12:18;101516.75;;;24.10;49.52
49063;BME280;34876;51.464;-0.150;2023-08-12T00:15:06;101506.96;;;24.11;49.49
49063;BME280;34876;51.464;-0.150;2023-08-12T00:17:46;101496.21;;;24.10;49.47
49063;BME280;34876;51.464;-0.150;2023-08-12T00:20:23;101502.35;;;24.10;49.47
49063;BME280;34876;51.464;-0.150;2023-08-12T00:22:52;101501.79;;;24.10;49.49
49063;BME280;34876;51.464;-0.150;2023-08-12T00:25:21;101499.28;;;24.10;49.47
49063;BME280;34876;51.464;-0.150;2023-08-12T00:27:51;101496.90;;;24.08;49.50
49063;BME280;34876;51.464;-0.150;2023-08-12T00:30:21;101495.65;;;24.07;49.53
49063;BME280;34876;51.464;-0.150;2023-08-12T00:33:02;101491.42;;;24.07;49.54
49063;BME280;34876;51.464;-0.150;2023-08-12T00:35:37;101490.87;;;24.08;49.50
49063;BME280;34876;51.464;-0.150;2023-08-12T00:38:08;101488.71;;;24.08;49.51
49063;BME280;34876;51.464;-0.150;2023-08-12T00:40:42;101489.89;;;24.09;49.46
49063;BME280;34876;51.464;-0.150;2023-08-12T00:43:12;101488.09;;;24.07;49.52
49063;BME280;34876;51.464;-0.150;2023-08-12T00:45:43;101485.28;;;24.07;49.50
49063;BME280;34876;51.464;-0.150;2023-08-12T00:48:13;101485.88;;;24.07;49.51
49063;BME280;34876;51.464;-0.150;2023-08-12T00:50:44;101486.30;;;24.05;49.57
49063;BME280;34876;51.464;-0.150;2023-08-12T00:53:16;101485.02;;;24.05;49.54
49063;BME280;34876;51.464;-0.150;2023-08-12T00:55:46;101487.18;;;24.07;49.45
49063;BME280;34876;51.464;-0.150;2023-08-12T00:58:20;101490.67;;;24.07;49.48
49063;BME280;34876;51.464;-0.150;2023-08-12T01:00:49;101486.07;;;24.06;49.47
49063;BME280;34876;51.464;-0.150;2023-08-12T01:03:23;101480.70;;;24.06;49.47
49063;BME280;34876;51.464;-0.150;2023-08-12T01:05:52;101479.17;;;24.08;49.42
49063;BME280;34876;51.464;-0.150;2023-08-12T01:08:25;101479.61;;;24.07;49.43
49063;BME280;34876;51.464;-0.150;2023-08-12T01:11:02;101477.49;;;24.07;49.41
49063;BME280;34876;51.464;-0.150;2023-08-12T01:13:39;101478.94;;;24.07;49.39
49063;BME280;34876;51.464;-0.150;2023-08-12T01:16:16;101473.07;;;24.06;49.41
49063;BME280;34876;51.464;-0.150;2023-08-12T01:18:48;101470.80;;;24.07;49.38
49063;BME280;34876;51.464;-0.150;2023-08-12T01:21:40;101468.99;;;24.04;49.46
49063;BME280;34876;51.464;-0.150;2023-08-12T01:24:13;101472.38;;;24.05;49.43
49063;BME280;34876;51.464;-0.150;2023-08-12T01:26:43;101472.15;;;24.04;49.44
49063;BME280;34876;51.464;-0.150;2023-08-12T01:29:12;101468.75;;;24.05;49.40
49063;BME280;34876;51.464;-0.150;2023-08-12T01:31:47;101465.63;;;24.05;49.40
49063;BME280;34876;51.464;-0.150;2023-08-12T01:34:27;101471.54;;;24.03;49.43
49063;BME280;34876;51.464;-0.150;2023-08-12T01:37:05;101471.84;;;24.03;49.42
49063;BME280;34876;51.464;-0.150;2023-08-12T01:39:41;101471.00;;;24.04;49.39
49063;BME280;34876;51.464;-0.150;2023-08-12T01:42:10;101468.34;;;24.03;49.40
49063;BME280;34876;51.464;-0.150;2023-08-12T01:44:41;101461.85;;;24.04;49.34
49063;BME280;34876;51.464;-0.150;2023-08-12T01:47:09;101461.60;;;24.03;49.37
49063;BME280;34876;51.464;-0.150;2023-08-12T01:49:38;101464.47;;;24.03;49.38
49063;BME280;34876;51.464;-0.150;2023-08-12T01:52:08;101467.06;;;24.03;49.35
49063;BME280;34876;51.464;-0.150;2023-08-12T01:54:38;101468.42;;;24.03;49.37
49063;BME280;34876;51.464;-0.150;2023-08-12T01:57:07;101467.44;;;24.03;49.32
49063;BME280;34876;51.464;-0.150;2023-08-12T01:59:37;101465.38;;;24.01;49.38
49063;BME280;34876;51.464;-0.150;2023-08-12T02:02:11;101466.50;;;24.01;49.37
49063;BME280;34876;51.464;-0.150;2023-08-12T02:04:41;101470.98;;;24.02;49.34
49063;BME280;34876;51.464;-0.150;2023-08-12T02:07:23;101467.39;;;24.01;49.34
49063;BME280;34876;51.464;-0.150;2023-08-12T02:10:02;101468.05;;;24.01;49.34
49063;BME280;34876;51.464;-0.150;2023-08-12T02:12:32;101467.56;;;24.00;49.36
49063;BME280;34876;51.464;-0.150;2023-08-12T02:15:01;101462.17;;;24.01;49.34
49063;BME280;34876;51.464;-0.150;2023-08-12T02:17:30;101455.83;;;24.00;49.34
49063;BME280;34876;51.464;-0.150;2023-08-12T02:20:00;101455.00;;;24.00;49.34
49063;BME280;34876;51.464;-0.150;2023-08-12T02:22:30;101453.24;;;23.99;49.34
49063;BME280;34876;51.464;-0.150;2023-08-12T02:25:16;101451.36;;;23.99;49.33
49063;BME280;34876;51.464;-0.150;2023-08-12T02:27:46;101448.64;;;23.99;49.35
49063;BME280;34876;51.464;-0.150;2023-08-12T02:30:14;101451.19;;;24.00;49.26
49063;BME280;34876;51.464;-0.150;2023-08-12T02:33:14;101450.65;;;23.99;49.29
49063;BME280;34876;51.464;-0.150;2023-08-12T02:35:43;101447.15;;;23.98;49.29
49063;BME280;34876;51.464;-0.150;2023-08-12T02:38:13;101446.67;;;23.97;49.34
49063;BME280;34876;51.464;-0.150;2023-08-12T02:40:50;101449.01;;;23.97;49.31
49063;BME280;34876;51.464;-0.150;2023-08-12T02:43:21;101453.08;;;23.97;49.30
49063;BME280;34876;51.464;-0.150;2023-08-12T02:45:50;101459.42;;;23.95;49.34
49063;BME280;34876;51.464;-0.150;2023-08-12T02:48:23;101467.21;;;23.98;49.26
49063;BME280;34876;51.464;-0.150;2023-08-12T02:50:54;101472.69;;;23.97;49.27
49063;BME280;34876;51.464;-0.150;2023-08-12T02:53:34;101474.09;;;23.96;49.33
49063;BME280;34876;51.464;-0.150;2023-08-12T02:56:04;101474.75;;;23.94;49.33
49063;BME280;34876;51.464;-0.150;2023-08-12T02:58:32;101470.40;;;23.94;49.33
49063;BME280;34876;51.464;-0.150;2023-08-12T03:01:03;101471.20;;;23.95;49.32
49063;BME280;34876;51.464;-0.150;2023-08-12T03:03:33;101468.27;;;23.93;49.37
49063;BME280;34876;51.464;-0.150;2023-08-12T03:06:02;101471.79;;;23.91;49.40
49063;BME280;34876;51.464;-0.150;2023-08-12T03:08:31;101469.99;;;23.94;49.35
49063;BME280;34876;51.464;-0.150;2023-08-12T03:11:01;101470.49;;;23.94;49.30
49063;BME280;34876;51.464;-0.150;2023-08-12T03:13:30;101469.20;;;23.93;49.35
49063;BME280;34876;51.464;-0.150;2023-08-12T03:16:12;101469.16;;;23.89;49.44
49063;BME280;34876;51.464;-0.150;2023-08-12T03:18:48;101472.48;;;23.93;49.32
49063;BME280;34876;51.464;-0.150;2023-08-12T03:21:18;101468.99;;;23.89;49.44
49063;BME280;34876;51.464;-0.150;2023-08-12T03:24:01;101470.13;;;23.91;49.37
49063;BME280;34876;51.464;-0.150;2023-08-12T03:26:31;101468.35;;;23.91;49.35
49063;BME280;34876;51.464;-0.150;2023-08-12T03:29:04;101468.65;;;23.91;49.37
49063;BME280;34876;51.464;-0.150;2023-08-12T03:31:49;101469.07;;;23.90;49.38
49063;BME280;34876;51.464;-0.150;2023-08-12T03:34:23;101473.22;;;23.89;49.42
49063;BME280;34876;51.464;-0.150;2023-08-12T03:36:53;101471.13;;;23.90;49.39
49063;BME280;34876;51.464;-0.150;2023-08-12T03:39:30;101469.25;;;23.90;49.38
49063;BME280;34876;51.464;-0.150;2023-08-12T03:41:59;101465.26;;;23.87;49.44
49063;BME280;34876;51.464;-0.150;2023-08-12T03:44:29;101464.20;;;23.89;49.39
49063;BME280;34876;51.464;-0.150;2023-08-12T03:46:58;101462.61;;;23.89;49.39
49063;BME280;34876;51.464;-0.150;2023-08-12T03:49:29;101459.18;;;23.90;49.34
49063;BME280;34876;51.464;-0.150;2023-08-12T03:52:00;101458.83;;;23.88;49.36
49063;BME280;34876;51.464;-0.150;2023-08-12T03:54:31;101456.14;;;23.86;49.38
49063;BME280;34876;51.464;-0.150;2023-08-12T03:56:59;101448.79;;;23.86;49.40
49063;BME280;34876;51.464;-0.150;2023-08-12T03:59:47;101445.07;;;23.86;49.38
49063;BME280;34876;51.464;-0.150;2023-08-12T04:02:22;101446.76;;;23.88;49.31
49063;BME280;34876;51.464;-0.150;2023-08-12T04:05:09;101445.93;;;23.87;49.34
49063;BME280;34876;51.464;-0.150;2023-08-12T04:07:38;101446.07;;;23.85;49.36
49063;BME280;34876;51.464;-0.150;2023-08-12T04:10:07;101442.72;;;23.83;49.39
49063;BME280;34876;51.464;-0.150;2023-08-12T04:12:39;101440.46;;;23.83;49.40
49063;BME280;34876;51.464;-0.150;2023-08-12T04:15:15;101438.02;;;23.84;49.34
49063;BME280;34876;51.464;-0.150;2023-08-12T04:17:49;101432.90;;;23.83;49.37
49063;BME280;34876;51.464;-0.150;2023-08-12T04:20:19;101430.51;;;23.82;49.37
49063;BME280;34876;51.464;-0.150;2023-08-12T04:22:55;101429.18;;;23.81;49.42
49063;BME280;34876;51.464;-0.150;2023-08-12T04:25:25;101430.83;;;23.81;49.37
49063;BME280;34876;51.464;-0.150;2023-08-12T04:27:55;101428.03;;;23.80;49.38
49063;BME280;34876;51.464;-0.150;2023-08-12T04:30:25;101431.16;;;23.80;49.37
49063;BME280;34876;51.464;-0.150;2023-08-12T04:32:54;101434.83;;;23.82;49.32
49063;BME280;34876;51.464;-0.150;2023-08-12T04:35:24;101431.74;;;23.80;49.37
49063;BME280;34876;51.464;-0.150;2023-08-12T04:37:53;101429.94;;;23.80;49.32
49063;BME280;34876;51.464;-0.150;2023-08-12T04:40:23;101429.98;;;23.80;49.33
49063;BME280;34876;51.464;-0.150;2023-08-12T04:43:01;101425.56;;;23.78;49.34
49063;BME280;34876;51.464;-0.150;2023-08-12T04:45:31;101421.17;;;23.76;49.37
49063;BME280;34876;51.464;-0.150;2023-08-12T04:47:59;101413.76;;;23.78;49.32
49063;BME280;34876;51.464;-0.150;2023-08-12T04:50:31;101408.43;;;23.79;49.29
49063;BME280;34876;51.464;-0.150;2023-08-12T04:53:04;101405.67;;;23.79;49.27
49063;BME280;34876;51.464;-0.150;2023-08-12T04:55:39;101401.89;;;23.77;49.29
49063;BME280;34876;51.464;-0.150;2023-08-12T04:58:08;101399.45;;;23.77;49.28
49063;BME280;34876;51.464;-0.150;2023-08-12T05:00:38;101401.11;;;23.79;49.24
49063;BME280;34876;51.464;-0.150;2023-08-12T05:03:08;101399.79;;;23.78;49.25
49063;BME280;34876;51.464;-0.150;2023-08-12T05:05:37;101391.25;;;23.78;49.23
49063;BME280;34876;51.464;-0.150;2023-08-12T05:08:06;101387.70;;;23.78;49.21
49063;BME280;34876;51.464;-0.150;2023-08-12T05:10:36;101384.36;;;23.77;49.22
49063;BME280;34876;51.464;-0.150;2023-08-12T05:13:06;101389.85;;;23.79;49.19
49063;BME280;34876;51.464;-0.150;2023-08-12T05:15:39;101388.66;;;23.77;49.21
49063;BME280;34876;51.464;-0.150;2023-08-12T05:18:07;101389.77;;;23.79;49.15
49063;BME280;34876;51.464;-0.150;2023-08-12T05:20:37;101390.39;;;23.77;49.19
49063;BME280;34876;51.464;-0.150;2023-08-12T05:23:06;101397.04;;;23.80;49.12
49063;BME280;34876;51.464;-0.150;2023-08-12T05:25:34;101399.14;;;23.80;49.12
49063;BME280;34876;51.464;-0.150;2023-08-12T05:28:09;101398.43;;;23.81;49.07
49063;BME280;34876;51.464;-0.150;2023-08-12T05:30:38;101399.05;;;23.82;49.05
49063;BME280;34876;51.464;-0.150;2023-08-12T05:33:16;101398.95;;;23.82;49.05
49063;BME280;34876;51.464;-0.150;2023-08-12T05:35:47;101394.03;;;23.81;49.07
49063;BME280;34876;51.464;-0.150;2023-08-12T05:38:16;101389.25;;;23.80;49.09
49063;BME280;34876;51.464;-0.150;2023-08-12T05:40:45;101391.85;;;23.83;49.00
49063;BME280;34876;51.464;-0.150;2023-08-12T05:43:15;101394.56;;;23.82;49.01
49063;BME280;34876;51.464;-0.150;2023-08-12T05:45:44;101396.75;;;23.86;48.91
49063;BME280;34876;51.464;-0.150;2023-08-12T05:48:15;101394.64;;;23.80;49.04
49063;BME280;34876;51.464;-0.150;2023-08-12T05:50:50;101392.38;;;23.85;48.94
49063;BME280;34876;51.464;-0.150;2023-08-12T05:53:22;101396.59;;;23.83;48.97
49063;BME280;34876;51.464;-0.150;2023-08-12T05:55:51;101395.87;;;23.86;48.89
49063;BME280;34876;51.464;-0.150;2023-08-12T05:58:20;101396.83;;;23.89;48.81
49063;BME280;34876;51.464;-0.150;2023-08-12T06:00:51;101397.49;;;23.91;48.76
49063;BME280;34876;51.464;-0.150;2023-08-12T06:03:25;101396.22;;;23.85;48.89
49063;BME280;34876;51.464;-0.150;2023-08-12T06:05:54;101396.36;;;23.90;48.77
49063;BME280;34876;51.464;-0.150;2023-08-12T06:08:23;101396.39;;;23.91;48.74
49063;BME280;34876;51.464;-0.150;2023-08-12T06:10:52;101398.62;;;23.91;48.73
49063;BME280;34876;51.464;-0.150;2023-08-12T06:13:21;101395.61;;;23.94;48.67
49063;BME280;34876;51.464;-0.150;2023-08-12T06:15:55;101397.87;;;23.96;48.60
49063;BME280;34876;51.464;-0.150;2023-08-12T06:18:25;101398.13;;;23.97;48.61
49063;BME280;34876;51.464;-0.150;2023-08-12T06:20:55;101398.25;;;23.99;48.53
49063;BME280;34876;51.464;-0.150;2023-08-12T06:23:25;101393.86;;;23.74;49.03
49063;BME280;34876;51.464;-0.150;2023-08-12T06:25:54;101392.40;;;23.97;48.58
49063;BME280;34876;51.464;-0.150;2023-08-12T06:28:23;101391.74;;;24.13;48.17
49063;BME280;34876;51.464;-0.150;2023-08-12T06:30:51;101385.96;;;24.63;46.88
49063;BME280;34876;51.464;-0.150;2023-08-12T06:33:22;101390.79;;;24.37;47.47
49063;BME280;34876;51.464;-0.150;2023-08-12T06:35:52;101387.43;;;24.80;46.43
49063;BME280;34876;51.464;-0.150;2023-08-12T06:38:21;101376.06;;;25.32;45.15
49063;BME280;34876;51.464;-0.150;2023-08-12T06:40:51;101379.87;;;25.61;44.38
49063;BME280;34876;51.464;-0.150;2023-08-12T06:43:35;101380.18;;;25.90;43.68
49063;BME280;34876;51.464;-0.150;2023-08-12T06:46:04;101380.37;;;25.93;43.54
49063;BME280;34876;51.464;-0.150;2023-08-12T06:48:33;101383.54;;;26.21;42.93
49063;BME280;34876;51.464;-0.150;2023-08-12T06:51:03;101378.02;;;26.28;43.00
49063;BME280;34876;51.464;-0.150;2023-08-12T06:53:31;101380.80;;;26.38;42.60
49063;BME280;34876;51.464;-0.150;2023-08-12T06:56:00;101378.46;;;25.51;44.46
49063;BME280;34876;51.464;-0.150;2023-08-12T06:58:29;101375.20;;;25.16;45.39
49063;BME280;34876;51.464;-0.150;2023-08-12T07:01:01;101377.67;;;25.02;45.74
49063;BME280;34876;51.464;-0.150;2023-08-12T07:03:31;101372.96;;;25.01;45.79
49063;BME280;34876;51.464;-0.150;2023-08-12T07:06:01;101376.56;;;24.94;45.99
49063;BME280;34876;51.464;-0.150;2023-08-12T07:08:31;101379.01;;;24.68;46.61
49063;BME280;34876;51.464;-0.150;2023-08-12T07:11:01;101381.42;;;24.79;46.37
49063;BME280;34876;51.464;-0.150;2023-08-12T07:13:31;101380.92;;;24.82;46.30
49063;BME280;34876;51.464;-0.150;2023-08-12T07:16:01;101381.94;;;24.67;46.69
49063;BME280;34876;51.464;-0.150;2023-08-12T07:18:29;101387.25;;;24.53;46.87
49063;BME280;34876;51.464;-0.150;2023-08-12T07:20:59;101383.39;;;24.58;46.92
49063;BME280;34876;51.464;-0.150;2023-08-12T07:23:29;101384.80;;;24.57;46.93
49063;BME280;34876;51.464;-0.150;2023-08-12T07:26:03;101393.91;;;24.37;47.44
49063;BME280;34876;51.464;-0.150;2023-08-12T07:28:33;101397.77;;;24.49;47.19
49063;BME280;34876;51.464;-0.150;2023-08-12T07:31:02;101400.42;;;24.42;47.27
49063;BME280;34876;51.464;-0.150;2023-08-12T07:33:31;101401.37;;;24.36;47.51
49063;BME280;34876;51.464;-0.150;2023-08-12T07:36:03;101401.85;;;24.28;47.70
49063;BME280;34876;51.464;-0.150;2023-08-12T07:38:31;101401.43;;;24.43;47.37
49063;BME280;34876;51.464;-0.150;2023-08-12T07:41:01;101398.53;;;24.50;47.18
49063;BME280;34876;51.464;-0.150;2023-08-12T07:43:31;101397.40;;;24.06;48.15
49063;BME280;34876;51.464;-0.150;2023-08-12T07:46:00;101397.62;;;24.44;47.34
49063;BME280;34876;51.464;-0.150;2023-08-12T07:48:31;101397.94;;;24.49;47.18
49063;BME280;34876;51.464;-0.150;2023-08-12T07:51:01;101391.46;;;24.36;47.54
49063;BME280;34876;51.464;-0.150;2023-08-12T07:53:31;101393.91;;;24.24;47.84
49063;BME280;34876;51.464;-0.150;2023-08-12T07:56:05;101389.96;;;24.27;47.69
49063;BME280;34876;51.464;-0.150;2023-08-12T07:58:34;101389.36;;;24.17;47.96
49063;BME280;34876;51.464;-0.150;2023-08-12T08:01:03;101389.77;;;24.24;47.87
49063;BME280;34876;51.464;-0.150;2023-08-12T08:03:33;101389.82;;;24.13;47.85
49063;BME280;34876;51.464;-0.150;2023-08-12T08:06:03;101387.16;;;23.97;47.64
49063;BME280;34876;51.464;-0.150;2023-08-12T08:08:34;101387.14;;;23.97;47.66
49063;BME280;34876;51.464;-0.150;2023-08-12T08:11:11;101384.96;;;24.00;48.35
49063;BME280;34876;51.464;-0.150;2023-08-12T08:13:41;101387.17;;;23.68;49.14
49063;BME280;34876;51.464;-0.150;2023-08-12T08:16:11;101387.15;;;24.09;47.98
49063;BME280;34876;51.464;-0.150;2023-08-12T08:18:41;101381.06;;;23.97;47.00
49063;BME280;34876;51.464;-0.150;2023-08-12T08:21:10;101384.47;;;24.17;47.64
49063;BME280;34876;51.464;-0.150;2023-08-12T08:23:41;101378.75;;;23.89;46.32
49063;BME280;34876;51.464;-0.150;2023-08-12T08:26:10;101376.13;;;24.02;48.10
49063;BME280;34876;51.464;-0.150;2023-08-12T08:28:41;101375.75;;;24.38;47.44
49063;BME280;34876;51.464;-0.150;2023-08-12T08:31:15;101375.06;;;24.12;45.79
49063;BME280;34876;51.464;-0.150;2023-08-12T08:33:50;101377.18;;;23.94;46.30
49063;BME280;34876;51.464;-0.150;2023-08-12T08:36:20;101376.47;;;24.34;47.50
49063;BME280;34876;51.464;-0.150;2023-08-12T08:38:50;101372.97;;;24.38;47.32
49063;BME280;34876;51.464;-0.150;2023-08-12T08:41:20;101375.09;;;24.24;47.67
49063;BME280;34876;51.464;-0.150;2023-08-12T08:44:03;101375.62;;;24.35;46.63
49063;BME280;34876;51.464;-0.150;2023-08-12T08:46:42;101377.90;;;24.13;47.37
49063;BME280;34876;51.464;-0.150;2023-08-12T08:49:15;101374.86;;;24.10;46.18
49063;BME280;34876;51.464;-0.150;2023-08-12T08:51:49;101366.22;;;24.39;46.43
49063;BME280;34876;51.464;-0.150;2023-08-12T08:54:21;101365.82;;;24.43;46.54
49063;BME280;34876;51.464;-0.150;2023-08-12T08:56:51;101370.33;;;24.14;47.73
49063;BME280;34876;51.464;-0.150;2023-08-12T08:59:21;101370.30;;;23.93;46.32
49063;BME280;34876;51.464;-0.150;2023-08-12T09:01:52;101364.90;;;23.93;48.25
49063;BME280;34876;51.464;-0.150;2023-08-12T09:04:23;101363.73;;;23.95;45.82
49063;BME280;34876;51.464;-0.150;2023-08-12T09:06:53;101364.75;;;24.05;47.91
49063;BME280;34876;51.464;-0.150;2023-08-12T09:09:23;101355.45;;;24.29;47.33
49063;BME280;34876;51.464;-0.150;2023-08-12T09:11:57;101346.66;;;24.43;46.92
49063;BME280;34876;51.464;-0.150;2023-08-12T09:14:27;101346.79;;;24.84;45.78
49063;BME280;34876;51.464;-0.150;2023-08-12T09:16:57;101343.30;;;25.46;43.01
49063;BME280;34876;51.464;-0.150;2023-08-12T09:19:26;101345.89;;;25.53;41.48
49063;BME280;34876;51.464;-0.150;2023-08-12T09:21:58;101349.68;;;25.34;43.13
49063;BME280;34876;51.464;-0.150;2023-08-12T09:24:27;101355.63;;;25.27;44.76
49063;BME280;34876;51.464;-0.150;2023-08-12T09:27:10;101350.78;;;24.89;45.69
49063;BME280;34876;51.464;-0.150;2023-08-12T09:29:56;101347.28;;;25.45;44.12
49063;BME280;34876;51.464;-0.150;2023-08-12T09:32:28;101346.18;;;25.31;42.26
49063;BME280;34876;51.464;-0.150;2023-08-12T09:34:58;101345.68;;;25.15;44.94
49063;BME280;34876;51.464;-0.150;2023-08-12T09:37:28;101348.09;;;24.89;43.27
49063;BME280;34876;51.464;-0.150;2023-08-12T09:39:57;101339.96;;;25.07;43.80
49063;BME280;34876;51.464;-0.150;2023-08-12T09:42:33;101347.87;;;24.94;43.91
49063;BME280;34876;51.464;-0.150;2023-08-12T09:45:02;101349.03;;;24.62;45.27
49063;BME280;34876;51.464;-0.150;2023-08-12T09:47:33;101346.03;;;24.51;46.14
49063;BME280;34876;51.464;-0.150;2023-08-12T09:50:03;101347.57;;;24.46;44.98
49063;BME280;34876;51.464;-0.150;2023-08-12T09:52:41;101356.49;;;24.24;43.71
49063;BME280;34876;51.464;-0.150;2023-08-12T09:55:11;101351.52;;;24.16;44.98
49063;BME280;34876;51.464;-0.150;2023-08-12T09:57:42;101348.18;;;24.33;46.79
49063;BME280;34876;51.464;-0.150;2023-08-12T10:00:14;101344.98;;;24.42;46.09
49063;BME280;34876;51.464;-0.150;2023-08-12T10:02:47;101348.90;;;24.05;43.40
49063;BME280;34876;51.464;-0.150;2023-08-12T10:05:32;101344.62;;;24.33;46.99
49063;BME280;34876;51.464;-0.150;2023-08-12T10:08:02;101339.23;;;24.39;46.59
49063;BME280;34876;51.464;-0.150;2023-08-12T10:10:39;101344.15;;;24.48;46.73
49063;BME280;34876;51.464;-0.150;2023-08-12T10:13:10;101359.87;;;24.25;43.09
49063;BME280;34876;51.464;-0.150;2023-08-12T10:15:48;101352.69;;;24.24;47.25
49063;BME280;34876;51.464;-0.150;2023-08-12T10:18:18;101350.47;;;24.25;46.11
49063;BME280;34876;51.464;-0.150;2023-08-12T10:20:49;101358.04;;;24.19;47.25
49063;BME280;34876;51.464;-0.150;2023-08-12T10:23:21;101353.11;;;24.15;47.41
49063;BME280;34876;51.464;-0.150;2023-08-12T10:25:58;101354.49;;;23.75;47.27
49063;BME280;34876;51.464;-0.150;2023-08-12T10:28:30;101357.29;;;23.82;46.59
49063;BME280;34876;51.464;-0.150;2023-08-12T10:31:00;101354.14;;;23.95;48.09
49063;BME280;34876;51.464;-0.150;2023-08-12T10:33:31;101355.74;;;23.77;47.85
49063;BME280;34876;51.464;-0.150;2023-08-12T10:36:05;101357.10;;;24.01;47.94
49063;BME280;34876;51.464;-0.150;2023-08-12T10:38:34;101347.30;;;23.75;47.03
49063;BME280;34876;51.464;-0.150;2023-08-12T10:41:21;101347.10;;;23.93;47.94
49063;BME280;34876;51.464;-0.150;2023-08-12T10:44:00;101347.31;;;24.07;47.69
49063;BME280;34876;51.464;-0.150;2023-08-12T10:46:33;101341.83;;;24.15;47.50
49063;BME280;34876;51.464;-0.150;2023-08-12T10:49:05;101339.87;;;24.07;47.68
49063;BME280;34876;51.464;-0.150;2023-08-12T10:51:44;101339.47;;;23.98;47.73
49063;BME280;34876;51.464;-0.150;2023-08-12T10:54:16;101345.72;;;23.94;46.47
49063;BME280;34876;51.464;-0.150;2023-08-12T10:57:17;101342.26;;;24.13;47.19
49063;BME280;34876;51.464;-0.150;2023-08-12T10:59:49;101340.77;;;24.12;47.39
49063;BME280;34876;51.464;-0.150;2023-08-12T11:02:21;101336.55;;;24.15;47.31
49063;BME280;34876;51.464;-0.150;2023-08-12T11:05:00;101331.44;;;24.14;47.52
49063;BME280;34876;51.464;-0.150;2023-08-12T11:07:33;101320.97;;;24.20;47.24
49063;BME280;34876;51.464;-0.150;2023-08-12T11:10:05;101324.23;;;24.01;47.80
49063;BME280;34876;51.464;-0.150;2023-08-12T11:12:41;101323.33;;;23.98;46.28
49063;BME280;34876;51.464;-0.150;2023-08-12T11:15:11;101330.82;;;23.89;45.10
49063;BME280;34876;51.464;-0.150;2023-08-12T11:17:41;101329.94;;;23.84;48.06
49063;BME280;34876;51.464;-0.150;2023-08-12T11:20:11;101332.89;;;24.01;45.66
49063;BME280;34876;51.464;-0.150;2023-08-12T11:22:43;101326.54;;;23.78;46.27
49063;BME280;34876;51.464;-0.150;2023-08-12T11:25:14;101325.40;;;23.56;45.50
49063;BME280;34876;51.464;-0.150;2023-08-12T11:27:45;101325.09;;;23.95;47.83
49063;BME280;34876;51.464;-0.150;2023-08-12T11:30:16;101330.77;;;23.84;45.68
49063;BME280;34876;51.464;-0.150;2023-08-12T11:32:49;101332.25;;;23.77;48.40
49063;BME280;34876;51.464;-0.150;2023-08-12T11:35:21;101359.63;;;23.89;48.34
49063;BME280;34876;51.464;-0.150;2023-08-12T11:37:56;101372.07;;;23.01;51.66
49063;BME280;34876;51.464;-0.150;2023-08-12T11:40:27;101378.94;;;23.54;49.58
49063;BME280;34876;51.464;-0.150;2023-08-12T11:42:57;101371.12;;;23.66;49.49
49063;BME280;34876;51.464;-0.150;2023-08-12T11:45:27;101365.50;;;23.74;52.16
49063;BME280;34876;51.464;-0.150;2023-08-12T11:47:57;101360.75;;;23.77;49.46
49063;BME280;34876;51.464;-0.150;2023-08-12T11:50:31;101353.89;;;24.13;48.03
49063;BME280;34876;51.464;-0.150;2023-08-12T11:53:03;101349.58;;;23.97;50.50
49063;BME280;34876;51.464;-0.150;2023-08-12T11:55:45;101348.31;;;23.98;51.82
49063;BME280;34876;51.464;-0.150;2023-08-12T11:58:14;101343.85;;;24.06;48.37
49063;BME280;34876;51.464;-0.150;2023-08-12T12:00:44;101345.04;;;24.02;48.61
49063;BME280;34876;51.464;-0.150;2023-08-12T12:03:13;101344.63;;;23.94;48.81
49063;BME280;34876;51.464;-0.150;2023-08-12T12:05:47;101341.82;;;24.13;48.29
49063;BME280;34876;51.464;-0.150;2023-08-12T12:08:24;101326.99;;;24.21;48.98
49063;BME280;34876;51.464;-0.150;2023-08-12T12:10:54;101320.15;;;24.21;48.49
49063;BME280;34876;51.464;-0.150;2023-08-12T12:13:25;101313.89;;;24.23;48.21
49063;BME280;34876;51.464;-0.150;2023-08-12T12:15:55;101321.10;;;23.93;49.56
49063;BME280;34876;51.464;-0.150;2023-08-12T12:18:25;101318.32;;;23.81;49.15
49063;BME280;34876;51.464;-0.150;2023-08-12T12:20:55;101314.73;;;23.91;48.89
49063;BME280;34876;51.464;-0.150;2023-08-12T12:23:28;101313.76;;;23.93;48.82
49063;BME280;34876;51.464;-0.150;2023-08-12T12:26:00;101309.04;;;24.10;48.39
49063;BME280;34876;51.464;-0.150;2023-08-12T12:28:30;101314.30;;;23.90;48.82
49063;BME280;34876;51.464;-0.150;2023-08-12T12:31:12;101303.16;;;24.23;47.89
49063;BME280;34876;51.464;-0.150;2023-08-12T12:33:42;101305.74;;;24.22;48.09
49063;BME280;34876;51.464;-0.150;2023-08-12T12:36:11;101310.25;;;23.99;48.60
49063;BME280;34876;51.464;-0.150;2023-08-12T12:38:40;101308.58;;;23.89;48.87
49063;BME280;34876;51.464;-0.150;2023-08-12T12:41:09;101306.56;;;23.81;48.39
49063;BME280;34876;51.464;-0.150;2023-08-12T12:43:38;101301.95;;;23.50;49.23
49063;BME280;34876;51.464;-0.150;2023-08-12T12:46:07;101304.62;;;23.84;48.96
49063;BME280;34876;51.464;-0.150;2023-08-12T12:48:37;101308.39;;;23.90;48.74
49063;BME280;34876;51.464;-0.150;2023-08-12T12:51:06;101312.41;;;23.81;49.09
49063;BME280;34876;51.464;-0.150;2023-08-12T12:53:36;101305.77;;;23.55;47.23
49063;BME280;34876;51.464;-0.150;2023-08-12T12:56:05;101312.08;;;23.64;49.25
49063;BME280;34876;51.464;-0.150;2023-08-12T12:58:37;101319.64;;;23.76;49.31
49063;BME280;34876;51.464;-0.150;2023-08-12T13:01:11;101323.09;;;23.80;48.54
49063;BME280;34876;51.464;-0.150;2023-08-12T13:03:41;101318.20;;;23.91;49.08
49063;BME280;34876;51.464;-0.150;2023-08-12T13:06:10;101307.09;;;24.21;46.78
49063;BME280;34876;51.464;-0.150;2023-08-12T13:08:40;101307.31;;;24.29;47.96